createdAt,value
2018-03-22T00:02:08.196Z,5.77
2018-03-22T00:04:35.747Z,6.50
2018-03-22T00:07:03.283Z,5.97
2018-03-22T00:09:30.821Z,5.43
2018-03-22T00:11:58.383Z,7.07
2018-03-22T00:14:26.005Z,6.17
2018-03-22T00:16:53.555Z,7.33
2018-03-22T00:19:21.146Z,7.60
2018-03-22T00:21:48.728Z,12.63
2018-03-22T00:24:16.289Z,18.37
2018-03-22T00:26:43.873Z,11.23
2018-03-22T00:29:11.453Z,7.53
2018-03-22T00:31:39.078Z,5.90
2018-03-22T00:34:06.635Z,6.23
2018-03-22T00:36:34.227Z,6.60
2018-03-22T00:39:01.759Z,7.10
2018-03-22T00:41:29.266Z,5.73
2018-03-22T00:43:56.802Z,7.27
2018-03-22T00:46:24.377Z,6.37
2018-03-22T00:48:51.932Z,7.80
2018-03-22T00:51:19.482Z,6.33
2018-03-22T00:53:47.074Z,8.80
2018-03-22T00:56:14.668Z,7.57
2018-03-22T00:58:42.295Z,7.60
2018-03-22T01:01:10.016Z,7.17
2018-03-22T01:03:37.576Z,7.50
2018-03-22T01:06:05.166Z,7.10
2018-03-22T01:08:32.747Z,30.17
2018-03-22T01:11:00.305Z,12.40
2018-03-22T01:13:27.917Z,8.70
2018-03-22T01:15:55.485Z,19.37
2018-03-22T01:18:23.078Z,43.17
2018-03-22T01:20:50.650Z,6.50
2018-03-22T01:23:18.192Z,17.60
2018-03-22T01:25:45.764Z,12.50
2018-03-22T01:28:13.345Z,10.10
2018-03-22T01:30:42.722Z,9.53
2018-03-22T01:33:10.275Z,20.73
2018-03-22T01:35:37.860Z,13.23
2018-03-22T01:38:05.433Z,19.57
2018-03-22T01:40:32.994Z,9.73
2018-03-22T01:43:00.557Z,9.80
2018-03-22T01:45:28.088Z,10.13
2018-03-22T01:47:55.672Z,10.00
2018-03-22T01:50:23.228Z,16.43
2018-03-22T01:53:02.430Z,14.50
2018-03-22T01:55:29.969Z,19.03
2018-03-22T01:57:57.529Z,13.17
2018-03-22T02:00:25.087Z,11.10
2018-03-22T02:02:52.698Z,13.10
2018-03-22T02:05:20.279Z,8.77
2018-03-22T02:07:47.825Z,13.10
2018-03-22T02:10:15.419Z,13.07
2018-03-22T02:12:42.984Z,11.83
2018-03-22T02:15:10.554Z,14.90
2018-03-22T02:17:38.112Z,10.93
2018-03-22T02:20:05.682Z,10.40
2018-03-22T02:22:33.226Z,11.70
2018-03-22T02:25:00.808Z,11.93
2018-03-22T02:27:28.387Z,43.50
2018-03-22T02:29:55.987Z,17.97
2018-03-22T02:32:24.756Z,66.93
2018-03-22T02:34:52.302Z,40.70
2018-03-22T02:37:19.887Z,12.43
2018-03-22T02:39:47.442Z,10.27
2018-03-22T02:42:15.352Z,13.30
2018-03-22T02:44:43.330Z,13.27
2018-03-22T02:47:11.189Z,11.63
2018-03-22T02:49:38.729Z,11.60
2018-03-22T02:52:06.286Z,13.13
2018-03-22T02:54:33.829Z,17.77
2018-03-22T02:57:01.402Z,14.30
2018-03-22T02:59:28.953Z,15.37
2018-03-22T03:01:56.522Z,19.20
2018-03-22T03:04:24.043Z,14.67
2018-03-22T03:06:51.559Z,15.17
2018-03-22T03:09:19.085Z,14.43
2018-03-22T03:11:46.597Z,13.90
2018-03-22T03:14:14.130Z,14.87
2018-03-22T03:16:41.639Z,15.67
2018-03-22T03:19:09.164Z,15.00
2018-03-22T03:21:36.729Z,16.00
2018-03-22T03:24:04.276Z,17.80
2018-03-22T03:26:31.831Z,28.07
2018-03-22T03:28:59.377Z,19.40
2018-03-22T03:31:26.945Z,19.87
2018-03-22T03:33:54.512Z,19.90
2018-03-22T03:36:22.057Z,16.83
2018-03-22T03:38:49.637Z,19.53
2018-03-22T03:41:17.195Z,19.63
2018-03-22T03:43:44.751Z,16.57
2018-03-22T03:46:12.315Z,18.40
2018-03-22T03:48:39.850Z,13.90
2018-03-22T03:51:07.384Z,24.50
2018-03-22T03:53:34.940Z,17.60
2018-03-22T03:56:03.223Z,19.30
2018-03-22T03:58:30.779Z,17.37
2018-03-22T04:00:58.349Z,20.50
2018-03-22T04:03:25.893Z,22.47
2018-03-22T04:05:53.451Z,19.63
2018-03-22T04:08:21.017Z,17.30
2018-03-22T04:10:48.566Z,17.30
2018-03-22T04:13:16.117Z,18.30
2018-03-22T04:15:43.679Z,18.80
2018-03-22T04:18:11.237Z,17.70
2018-03-22T04:20:38.804Z,24.23
2018-03-22T04:23:06.362Z,20.73
2018-03-22T04:25:33.934Z,31.17
2018-03-22T04:28:01.491Z,23.50
2018-03-22T04:30:29.057Z,30.50
2018-03-22T04:32:56.635Z,29.53
2018-03-22T04:35:24.181Z,20.67
2018-03-22T04:37:51.738Z,41.03
2018-03-22T04:40:19.284Z,25.77
2018-03-22T04:42:46.862Z,25.40
2018-03-22T04:45:14.414Z,21.07
2018-03-22T04:47:41.954Z,22.20
2018-03-22T04:50:09.529Z,21.20
2018-03-22T04:52:37.085Z,18.40
2018-03-22T04:55:04.644Z,19.50
2018-03-22T04:57:32.205Z,20.83
2018-03-22T04:59:59.793Z,21.87
2018-03-22T05:02:27.340Z,17.40
2018-03-22T05:04:54.910Z,18.37
2018-03-22T05:07:22.487Z,19.97
2018-03-22T05:09:50.028Z,17.90
2018-03-22T05:12:17.559Z,19.87
2018-03-22T05:14:45.111Z,18.47
2018-03-22T05:17:12.651Z,20.80
2018-03-22T05:19:40.252Z,17.93
2018-03-22T05:22:07.812Z,21.90
2018-03-22T05:24:35.376Z,32.10
2018-03-22T05:27:03.214Z,19.13
2018-03-22T05:29:30.772Z,32.30
2018-03-22T05:31:58.309Z,23.50
2018-03-22T05:34:25.896Z,20.23
2018-03-22T05:36:53.471Z,17.10
2018-03-22T05:39:21.045Z,14.80
2018-03-22T05:41:48.622Z,17.07
2018-03-22T05:44:16.166Z,24.73
2018-03-22T05:46:43.712Z,18.47
2018-03-22T05:49:11.247Z,20.47
2018-03-22T05:51:38.802Z,18.70
2018-03-22T05:54:07.205Z,14.60
2018-03-22T05:56:34.750Z,15.67
2018-03-22T05:59:02.362Z,15.00
2018-03-22T06:01:29.901Z,15.13
2018-03-22T06:03:57.525Z,17.50
2018-03-22T06:06:25.097Z,14.80
2018-03-22T06:08:52.711Z,15.70
2018-03-22T06:11:20.230Z,13.83
2018-03-22T06:13:47.764Z,15.93
2018-03-22T06:16:15.349Z,16.07
2018-03-22T06:18:42.913Z,15.97
2018-03-22T06:21:10.423Z,14.37
2018-03-22T06:23:37.956Z,15.43
2018-03-22T06:26:05.476Z,15.37
2018-03-22T06:28:33.014Z,14.10
2018-03-22T06:31:00.554Z,13.80
2018-03-22T06:33:28.116Z,16.63
2018-03-22T06:35:55.693Z,20.87
2018-03-22T06:38:23.258Z,20.43
2018-03-22T06:40:50.794Z,22.57
2018-03-22T06:43:18.359Z,20.43
2018-03-22T06:45:45.920Z,20.07
2018-03-22T06:48:13.484Z,20.20
2018-03-22T06:50:41.070Z,21.03
2018-03-22T06:53:08.612Z,23.87
2018-03-22T06:55:36.150Z,21.40
2018-03-22T06:58:03.724Z,21.63
2018-03-22T07:00:31.263Z,23.90
2018-03-22T07:02:58.842Z,23.03
2018-03-22T07:05:26.439Z,23.43
2018-03-22T07:07:53.998Z,26.37
2018-03-22T07:10:21.551Z,23.47
2018-03-22T07:12:49.096Z,25.77
2018-03-22T07:15:16.627Z,24.70
2018-03-22T07:17:44.185Z,24.23
2018-03-22T07:20:11.749Z,22.57
2018-03-22T07:22:39.301Z,23.63
2018-03-22T07:25:06.853Z,22.10
2018-03-22T07:27:34.381Z,23.23
2018-03-22T07:30:01.934Z,22.43
2018-03-22T07:32:29.504Z,23.93
2018-03-22T07:34:57.062Z,22.80
2018-03-22T07:37:24.613Z,22.67
2018-03-22T07:39:52.184Z,24.20
2018-03-22T07:42:19.758Z,22.47
2018-03-22T07:44:49.220Z,21.23
2018-03-22T07:47:16.782Z,22.70
2018-03-22T07:49:44.357Z,21.97
2018-03-22T07:52:11.874Z,22.37
2018-03-22T07:54:39.424Z,20.70
2018-03-22T07:57:06.980Z,19.83
2018-03-22T07:59:34.549Z,20.13
2018-03-22T08:02:02.102Z,18.23
2018-03-22T08:04:29.653Z,19.73
2018-03-22T08:06:57.229Z,19.13
2018-03-22T08:09:24.768Z,17.57
2018-03-22T08:11:52.358Z,17.47
2018-03-22T08:14:19.914Z,17.17
2018-03-22T08:16:47.490Z,15.00
2018-03-22T08:19:15.030Z,16.47
2018-03-22T08:21:42.590Z,16.70
2018-03-22T08:24:10.140Z,17.90
2018-03-22T08:26:37.682Z,16.57
2018-03-22T08:29:05.246Z,15.10
2018-03-22T08:31:33.201Z,15.00
2018-03-22T08:34:00.775Z,18.10
2018-03-22T08:36:28.308Z,15.77
2018-03-22T08:38:55.828Z,14.77
2018-03-22T08:41:23.419Z,13.67
2018-03-22T08:43:50.921Z,14.80
2018-03-22T08:46:18.478Z,14.07
2018-03-22T08:48:46.048Z,15.30
2018-03-22T08:51:13.607Z,12.90
2018-03-22T08:53:41.158Z,14.73
2018-03-22T08:56:08.719Z,12.70
2018-03-22T08:58:36.278Z,13.40
2018-03-22T09:01:03.809Z,14.03
2018-03-22T09:03:31.371Z,13.40
2018-03-22T09:05:58.920Z,13.80
2018-03-22T09:14:07.453Z,11.73
2018-03-22T09:16:34.964Z,11.87
2018-03-22T09:19:02.526Z,12.40
2018-03-22T09:21:30.070Z,11.27
2018-03-22T09:23:57.615Z,12.90
2018-03-22T09:26:25.180Z,13.00
2018-03-22T09:28:52.784Z,12.80
2018-03-22T09:31:20.333Z,11.93
2018-03-22T09:33:47.896Z,13.30
2018-03-22T09:36:15.482Z,14.17
2018-03-22T09:38:43.022Z,12.37
2018-03-22T09:41:10.568Z,11.07
2018-03-22T09:43:38.127Z,11.73
2018-03-22T09:46:05.674Z,12.90
2018-03-22T09:48:33.391Z,11.70
2018-03-22T09:51:00.946Z,11.43
2018-03-22T09:53:28.510Z,11.97
2018-03-22T09:55:56.099Z,10.60
2018-03-22T09:58:23.646Z,12.27
2018-03-22T10:00:51.246Z,11.17
2018-03-22T10:03:18.779Z,12.43
2018-03-22T10:05:46.635Z,11.87
2018-03-22T10:08:14.198Z,12.73
2018-03-22T10:10:41.704Z,22.37
2018-03-22T10:13:09.267Z,11.80
2018-03-22T10:15:36.815Z,11.87
2018-03-22T10:18:04.575Z,11.43
2018-03-22T10:20:32.133Z,15.87
2018-03-22T10:22:59.699Z,12.17
2018-03-22T10:25:27.192Z,10.57
2018-03-22T10:27:54.739Z,11.70
2018-03-22T10:30:22.310Z,9.97
2018-03-22T10:32:49.924Z,11.40
2018-03-22T10:35:17.664Z,11.33
2018-03-22T10:37:45.534Z,12.60
2018-03-22T10:40:13.143Z,10.90
2018-03-22T10:42:40.645Z,10.10
2018-03-22T10:45:08.312Z,10.93
2018-03-22T10:47:35.983Z,10.50
2018-03-22T10:50:03.523Z,10.77
2018-03-22T10:52:31.079Z,11.77
2018-03-22T10:54:58.638Z,10.77
2018-03-22T10:57:28.588Z,11.53
2018-03-22T10:59:56.451Z,13.80
2018-03-22T11:02:29.961Z,12.20
2018-03-22T11:05:00.364Z,12.57
2018-03-22T11:07:29.280Z,9.90
2018-03-22T11:09:57.140Z,11.43
2018-03-22T11:12:26.011Z,11.50
2018-03-22T11:14:53.589Z,11.47
2018-03-22T11:17:21.890Z,15.07
2018-03-22T11:19:49.469Z,13.17
2018-03-22T11:22:17.013Z,12.33
2018-03-22T11:24:44.620Z,11.67
2018-03-22T11:27:12.897Z,13.43
2018-03-22T11:29:40.441Z,11.67
2018-03-22T11:32:08.036Z,11.70
2018-03-22T11:34:35.670Z,11.23
2018-03-22T11:37:03.222Z,13.00
2018-03-22T11:39:30.926Z,11.00
2018-03-22T11:41:58.481Z,12.27
2018-03-22T11:44:26.998Z,12.67
2018-03-22T11:46:54.585Z,13.13
2018-03-22T11:49:22.264Z,11.83
2018-03-22T11:51:51.414Z,11.27
2018-03-22T11:54:19.157Z,13.67
2018-03-22T11:56:46.719Z,12.27
2018-03-22T11:59:14.397Z,12.70
2018-03-22T12:01:42.445Z,12.90
2018-03-22T12:04:10.266Z,11.80
2018-03-22T12:06:37.831Z,13.80
2018-03-22T12:09:05.617Z,12.67
2018-03-22T12:11:34.214Z,12.20
2018-03-22T12:14:01.776Z,11.97
2018-03-22T12:16:29.521Z,13.93
2018-03-22T12:18:57.049Z,12.87
2018-03-22T12:21:24.785Z,13.77
2018-03-22T12:23:52.289Z,11.17
2018-03-22T12:26:19.877Z,12.37
2018-03-22T12:28:47.370Z,12.60
2018-03-22T12:31:14.887Z,12.30
2018-03-22T12:33:43.568Z,10.67
2018-03-22T12:36:11.692Z,11.40
2018-03-22T12:38:39.292Z,10.47
2018-03-22T12:41:06.851Z,10.90
2018-03-22T12:43:34.474Z,11.70
2018-03-22T12:46:02.047Z,12.00
2018-03-22T12:48:29.613Z,10.67
2018-03-22T12:50:57.182Z,12.40
2018-03-22T12:53:25.448Z,13.10
2018-03-22T12:55:53.082Z,11.57
2018-03-22T12:58:20.640Z,11.50
2018-03-22T13:00:48.291Z,14.77
2018-03-22T13:03:16.208Z,12.10
2018-03-22T13:05:43.855Z,13.47
2018-03-22T13:08:11.431Z,12.20
2018-03-22T13:10:39.188Z,12.87
2018-03-22T13:13:06.881Z,14.03
2018-03-22T13:15:34.522Z,14.07
2018-03-22T13:18:02.144Z,13.00
2018-03-22T13:20:31.572Z,14.60
2018-03-22T13:22:59.130Z,24.23
2018-03-22T13:25:26.718Z,18.40
2018-03-22T13:27:54.449Z,15.10
2018-03-22T13:30:22.026Z,17.83
2018-03-22T13:32:49.612Z,15.50
2018-03-22T13:35:17.775Z,13.50
2018-03-22T13:37:45.377Z,14.30
2018-03-22T13:40:13.553Z,16.60
2018-03-22T13:42:41.405Z,16.37
2018-03-22T13:45:09.067Z,16.77
2018-03-22T13:47:36.642Z,14.60
2018-03-22T13:50:04.202Z,16.07
2018-03-22T13:52:33.357Z,16.17
2018-03-22T13:55:00.895Z,16.40
2018-03-22T13:57:28.905Z,16.30
2018-03-22T13:59:56.490Z,14.97
2018-03-22T14:02:26.893Z,14.20
2018-03-22T14:04:54.646Z,14.83
2018-03-22T14:07:22.387Z,13.63
2018-03-22T14:09:50.002Z,12.67
2018-03-22T14:12:17.584Z,13.77
2018-03-22T14:14:45.142Z,13.87
2018-03-22T14:17:13.207Z,15.20
2018-03-22T14:19:40.788Z,14.53
2018-03-22T14:22:08.917Z,13.60
2018-03-22T14:24:36.572Z,19.37
2018-03-22T14:27:04.195Z,14.50
2018-03-22T14:29:31.834Z,13.57
2018-03-22T14:31:59.439Z,14.83
2018-03-22T14:34:27.010Z,14.27
2018-03-22T14:36:54.578Z,15.10
2018-03-22T14:39:22.146Z,14.83
2018-03-22T14:41:49.756Z,14.63
2018-03-22T14:44:17.324Z,14.93
2018-03-22T14:46:44.888Z,14.47
2018-03-22T14:49:12.885Z,13.70
2018-03-22T14:51:40.621Z,14.23
2018-03-22T14:54:08.177Z,14.43
2018-03-22T14:56:36.578Z,13.60
2018-03-22T14:59:04.152Z,14.53
2018-03-22T15:01:31.730Z,15.10
2018-03-22T15:03:59.309Z,12.37
2018-03-22T15:06:30.173Z,13.10
2018-03-22T15:08:57.753Z,13.80
2018-03-22T15:11:32.529Z,12.80
2018-03-22T15:14:04.101Z,15.37
2018-03-22T15:16:31.910Z,15.33
2018-03-22T15:19:03.840Z,15.73
2018-03-22T15:21:31.820Z,15.13
2018-03-22T15:24:12.171Z,14.17
2018-03-22T15:26:42.202Z,13.83
2018-03-22T15:29:10.200Z,13.37
2018-03-22T15:31:38.324Z,13.50
2018-03-22T15:34:07.620Z,12.23
2018-03-22T15:36:35.197Z,14.77
2018-03-22T15:39:07.369Z,15.10
2018-03-22T15:41:34.939Z,14.90
2018-03-22T15:44:07.413Z,14.07
2018-03-22T15:46:34.988Z,14.77
2018-03-22T15:49:03.851Z,15.63
2018-03-22T15:51:38.376Z,15.50
2018-03-22T15:54:07.790Z,13.90
2018-03-22T15:56:35.392Z,13.73
2018-03-22T15:59:02.995Z,14.97
2018-03-22T16:01:31.022Z,15.67
2018-03-22T16:03:58.639Z,13.47
2018-03-22T16:06:27.275Z,14.00
2018-03-22T16:08:54.916Z,13.90
2018-03-22T16:11:22.505Z,11.70
2018-03-22T16:13:50.070Z,13.10
2018-03-22T16:16:17.848Z,10.73
2018-03-22T16:18:45.455Z,12.20
2018-03-22T16:21:13.204Z,11.87
2018-03-22T16:23:40.799Z,13.13
2018-03-22T16:26:08.378Z,12.90
2018-03-22T16:28:35.941Z,12.73
2018-03-22T16:31:03.551Z,11.60
2018-03-22T16:33:31.181Z,12.47
2018-03-22T16:35:58.748Z,12.63
2018-03-22T16:38:26.437Z,12.73
2018-03-22T16:40:54.026Z,13.00
2018-03-22T16:43:24.387Z,15.27
2018-03-22T16:45:51.973Z,11.47
2018-03-22T16:48:19.613Z,13.17
2018-03-22T16:50:47.263Z,12.23
2018-03-22T16:53:14.826Z,12.90
2018-03-22T16:55:42.386Z,13.03
2018-03-22T16:58:10.046Z,13.43
2018-03-22T17:00:39.669Z,13.43
2018-03-22T17:03:07.460Z,16.60
2018-03-22T17:05:35.073Z,13.80
2018-03-22T17:08:02.648Z,13.30
2018-03-22T17:10:31.354Z,15.50
2018-03-22T17:12:58.930Z,14.70
2018-03-22T17:15:26.525Z,13.13
2018-03-22T17:17:54.684Z,13.07
2018-03-22T17:20:22.767Z,11.90
2018-03-22T17:22:50.359Z,10.43
2018-03-22T17:25:17.933Z,10.47
2018-03-22T17:27:45.500Z,12.03
2018-03-22T17:30:13.147Z,12.93
2018-03-22T17:32:43.151Z,11.87
2018-03-22T17:35:10.755Z,11.93
2018-03-22T17:37:38.386Z,13.33
2018-03-22T17:40:05.906Z,14.00
2018-03-22T17:42:33.577Z,11.60
2018-03-22T17:45:01.146Z,12.53
2018-03-22T17:47:28.876Z,12.53
2018-03-22T17:49:56.703Z,12.83
2018-03-22T17:52:24.261Z,12.77
2018-03-22T17:54:51.843Z,11.20
2018-03-22T17:57:19.395Z,12.50
2018-03-22T17:59:46.937Z,12.23
2018-03-22T18:02:14.495Z,11.20
2018-03-22T18:04:42.060Z,12.40
2018-03-22T18:07:09.641Z,11.10
2018-03-22T18:09:37.177Z,13.27
2018-03-22T18:12:04.723Z,13.13
2018-03-22T18:14:32.274Z,12.60
2018-03-22T18:16:59.844Z,10.53
2018-03-22T18:19:27.395Z,12.97
2018-03-22T18:21:54.939Z,11.73
2018-03-22T18:24:22.496Z,10.47
2018-03-22T18:26:50.063Z,11.07
2018-03-22T18:29:17.611Z,10.70
2018-03-22T18:31:45.167Z,10.20
2018-03-22T18:34:12.665Z,11.60
2018-03-22T18:36:40.199Z,11.80
2018-03-22T18:39:07.740Z,11.70
2018-03-22T18:41:35.309Z,9.87
2018-03-22T18:44:02.902Z,11.10
2018-03-22T18:46:30.408Z,10.33
2018-03-22T18:48:57.972Z,10.40
2018-03-22T18:51:25.533Z,12.53
2018-03-22T18:53:53.081Z,13.00
2018-03-22T18:56:20.636Z,12.63
2018-03-22T18:58:48.178Z,11.20
2018-03-22T19:01:15.799Z,12.03
2018-03-22T19:03:43.346Z,13.30
2018-03-22T19:06:11.274Z,11.10
2018-03-22T19:08:38.832Z,12.07
2018-03-22T19:11:06.369Z,12.53
2018-03-22T19:13:33.929Z,11.87
2018-03-22T19:16:01.503Z,10.40
2018-03-22T19:18:29.090Z,10.30
2018-03-22T19:20:56.585Z,9.83
2018-03-22T19:23:24.129Z,11.40
2018-03-22T19:25:51.696Z,10.93
2018-03-22T19:28:19.263Z,9.93
2018-03-22T19:30:46.758Z,11.23
2018-03-22T19:33:14.270Z,9.87
2018-03-22T19:35:41.830Z,10.17
2018-03-22T19:38:09.386Z,11.00
2018-03-22T19:40:36.962Z,7.93
2018-03-22T19:43:04.505Z,8.53
2018-03-22T19:45:32.047Z,10.27
2018-03-22T19:47:59.609Z,9.10
2018-03-22T19:50:27.168Z,10.80
2018-03-22T19:52:54.771Z,10.10
2018-03-22T19:55:22.320Z,9.13
2018-03-22T19:57:49.868Z,9.53
2018-03-22T20:00:17.448Z,9.00
2018-03-22T20:02:45.039Z,8.00
2018-03-22T20:05:12.619Z,8.97
2018-03-22T20:07:40.149Z,8.47
2018-03-22T20:10:07.691Z,9.97
2018-03-22T20:12:35.280Z,7.10
2018-03-22T20:15:02.835Z,8.10
2018-03-22T20:17:30.444Z,7.60
2018-03-22T20:19:58.004Z,7.33
2018-03-22T20:22:25.538Z,8.00
2018-03-22T20:24:53.070Z,7.37
2018-03-22T20:27:20.622Z,7.93
2018-03-22T20:29:48.200Z,9.23
2018-03-22T20:32:15.748Z,8.67
2018-03-22T20:34:43.355Z,7.50
2018-03-22T20:37:10.913Z,7.20
2018-03-22T20:39:38.497Z,8.20
2018-03-22T20:42:06.046Z,7.83
2018-03-22T20:44:33.546Z,9.17
2018-03-22T20:47:01.102Z,8.47
2018-03-22T20:49:28.648Z,8.00
2018-03-22T20:51:56.245Z,8.40
2018-03-22T20:54:23.796Z,8.50
2018-03-22T20:56:52.271Z,7.63
2018-03-22T20:59:19.879Z,9.17
2018-03-22T21:01:47.473Z,8.90
2018-03-22T21:04:15.404Z,9.53
2018-03-22T21:06:42.984Z,8.73
2018-03-22T21:09:10.543Z,8.47
2018-03-22T21:11:38.108Z,12.37
2018-03-22T21:14:05.661Z,9.70
2018-03-22T21:16:33.257Z,12.83
2018-03-22T21:19:00.814Z,9.70
2018-03-22T21:21:28.428Z,9.00
2018-03-22T21:23:56.004Z,10.97
2018-03-22T21:26:23.577Z,9.83
2018-03-22T21:28:51.139Z,9.23
2018-03-22T21:31:18.698Z,10.90
2018-03-22T21:33:46.326Z,8.50
2018-03-22T21:36:14.007Z,10.67
2018-03-22T21:38:41.556Z,9.40
2018-03-22T21:41:09.119Z,8.47
2018-03-22T21:43:36.874Z,11.63
2018-03-22T21:46:04.493Z,9.30
2018-03-22T21:48:32.053Z,8.77
2018-03-22T21:51:01.361Z,9.03
2018-03-22T21:53:28.908Z,9.83
2018-03-22T21:55:56.479Z,11.20
2018-03-22T21:58:24.054Z,9.37
2018-03-22T22:00:51.728Z,9.87
2018-03-22T22:03:19.508Z,10.50
2018-03-22T22:05:47.213Z,10.37
2018-03-22T22:08:15.010Z,11.43
2018-03-22T22:10:42.574Z,11.20
2018-03-22T22:13:10.605Z,13.50
2018-03-22T22:15:38.176Z,11.00
2018-03-22T22:18:05.835Z,12.40
2018-03-22T22:20:33.409Z,12.30
2018-03-22T22:23:00.980Z,12.53
2018-03-22T22:25:28.748Z,14.40
2018-03-22T22:27:56.316Z,12.27
2018-03-22T22:30:23.882Z,12.47
2018-03-22T22:32:51.479Z,18.67
2018-03-22T22:35:19.421Z,37.10
2018-03-22T22:37:47.116Z,15.00
2018-03-22T22:40:14.827Z,13.60
2018-03-22T22:42:42.395Z,12.97
2018-03-22T22:45:11.038Z,12.73
2018-03-22T22:47:38.606Z,14.00
2018-03-22T22:50:06.186Z,14.40
2018-03-22T22:52:33.763Z,14.27
2018-03-22T22:55:01.334Z,13.80
2018-03-22T22:57:28.950Z,13.20
2018-03-22T22:59:56.526Z,14.57
2018-03-22T23:02:24.116Z,12.80
2018-03-22T23:04:56.528Z,15.07
2018-03-22T23:07:25.683Z,13.20
2018-03-22T23:09:53.268Z,13.50
2018-03-22T23:12:20.892Z,13.30
2018-03-22T23:14:48.449Z,13.23
2018-03-22T23:17:18.692Z,14.40
2018-03-22T23:19:47.576Z,14.70
2018-03-22T23:22:15.436Z,14.57
2018-03-22T23:24:43.273Z,14.07
2018-03-22T23:27:11.936Z,13.73
2018-03-22T23:29:39.554Z,14.87
2018-03-22T23:32:07.292Z,14.17
2018-03-22T23:34:35.077Z,15.10
2018-03-22T23:37:04.762Z,18.97
2018-03-22T23:39:37.556Z,17.10
2018-03-22T23:42:05.459Z,17.03
2018-03-22T23:44:33.332Z,13.80
2018-03-22T23:47:03.442Z,14.43
2018-03-22T23:49:31.089Z,15.50
2018-03-22T23:51:58.686Z,14.13
2018-03-22T23:54:31.981Z,14.70
2018-03-22T23:57:00.008Z,15.50
2018-03-22T23:59:27.576Z,13.73
